In Rescue
 
Open Full Screen Window  High Contrast Mode
Wind Gusting 00 knots
06
April 02, 2020 11:53 PM EDT
Weather Information
Wind Direction
  360 °
Wind Speed
  06 kt (7 mph)
Wind Gust
  00 kt (0 mph)
Altimeter
30.11 in
Visibility
10 SM
Temperature
01° C
34° F
Dewpoint
-07° C
19° F
Humidity
56%
1hr Rain Fall
00.00 in.
24hr Rain Fall
00.00 in.
Sky Condition
Clear
VFR

METAR KMCD 030353Z AUTO 36006KT 10SM CLR 01/M07 A3011 RMK AO2 T00101067 400821017

FAA Disclaimer: The data displayed is for advisory purposes only and is not to be used for flight planning or operations.